createdAt,value
2022-12-15T00:01:19.103Z,100043.25
2022-12-15T00:04:03.841Z,100045.75
2022-12-15T00:06:48.777Z,100046.50
2022-12-15T00:09:33.583Z,100035.53
2022-12-15T00:12:18.399Z,100019.22
2022-12-15T00:15:03.209Z,100022.50
2022-12-15T00:17:47.960Z,100031.91
2022-12-15T00:20:32.800Z,100039.53
2022-12-15T00:23:24.683Z,100046.38
2022-12-15T00:26:09.419Z,100040.41
2022-12-15T00:28:55.923Z,100044.66
2022-12-15T00:31:50.035Z,100038.81
2022-12-15T00:34:34.877Z,100048.03
2022-12-15T00:37:19.758Z,100041.22
2022-12-15T00:39:46.064Z,100052.22
2022-12-15T00:42:12.358Z,100053.81
2022-12-15T00:44:38.647Z,100046.00
2022-12-15T00:47:05.059Z,100042.59
2022-12-15T00:49:50.446Z,100049.31
2022-12-15T00:52:36.400Z,100051.78
2022-12-15T00:55:22.215Z,100041.50
2022-12-15T00:58:07.087Z,100049.06
2022-12-15T01:00:52.360Z,100057.47
2022-12-15T01:03:41.895Z,100065.91
2022-12-15T01:06:28.201Z,100065.75
2022-12-15T01:09:12.884Z,100067.16
2022-12-15T01:11:58.284Z,100075.44
2022-12-15T01:14:43.164Z,100070.34
2022-12-15T01:17:28.032Z,100092.94
2022-12-15T01:20:12.841Z,100091.44
2022-12-15T01:22:39.320Z,100073.50
2022-12-15T01:25:06.913Z,100072.97
2022-12-15T01:27:33.156Z,100065.44
2022-12-15T01:29:59.408Z,100072.72
2022-12-15T01:32:25.793Z,100071.44
2022-12-15T01:34:52.069Z,100076.03
2022-12-15T01:37:18.365Z,100069.03
2022-12-15T01:40:03.307Z,100065.41
2022-12-15T01:42:29.865Z,100053.19
2022-12-15T01:45:14.992Z,100067.56
2022-12-15T01:47:41.350Z,100063.47
2022-12-15T01:50:09.453Z,100049.81
2022-12-15T01:52:35.752Z,100056.03
2022-12-15T01:55:02.010Z,100051.19
2022-12-15T01:57:31.083Z,100062.56
2022-12-15T01:59:59.405Z,100061.84
2022-12-15T02:02:28.179Z,100054.25
2022-12-15T02:04:56.598Z,100053.47
2022-12-15T02:07:23.350Z,100070.69
2022-12-15T02:09:51.719Z,100071.63
2022-12-15T02:12:23.858Z,100073.34
2022-12-15T02:14:58.782Z,100076.72
2022-12-15T02:17:30.894Z,100075.66
2022-12-15T02:19:59.876Z,100079.94
2022-12-15T02:22:41.129Z,100067.75
2022-12-15T02:25:27.684Z,100075.47
2022-12-15T02:27:56.863Z,100075.47
2022-12-15T02:30:29.296Z,100076.28
2022-12-15T02:33:14.960Z,100073.53
2022-12-15T02:35:44.295Z,100078.53
2022-12-15T02:38:10.560Z,100086.97
2022-12-15T02:40:37.113Z,100077.31
2022-12-15T02:43:05.538Z,100077.94
2022-12-15T02:45:42.865Z,100080.34
2022-12-15T02:48:23.881Z,100083.63
2022-12-15T02:50:52.975Z,100081.06
2022-12-15T02:53:22.245Z,100084.47
2022-12-15T02:56:02.509Z,100079.44
2022-12-15T02:58:36.244Z,100090.44
2022-12-15T03:01:05.870Z,100091.16
2022-12-15T03:03:33.444Z,100099.75
2022-12-15T03:06:02.118Z,100095.66
2022-12-15T03:08:28.726Z,100100.19
2022-12-15T03:10:56.407Z,100100.59
2022-12-15T03:13:23.033Z,100095.63
2022-12-15T03:15:49.284Z,100096.94
2022-12-15T03:18:15.628Z,100096.31
2022-12-15T03:20:41.864Z,100094.88
2022-12-15T03:23:08.180Z,100103.38
2022-12-15T03:25:34.473Z,100105.88
2022-12-15T03:28:00.821Z,100106.41
2022-12-15T03:30:27.099Z,100105.38
2022-12-15T03:32:53.342Z,100107.75
2022-12-15T03:35:19.603Z,100107.69
2022-12-15T03:37:45.842Z,100110.88
2022-12-15T03:40:16.204Z,100102.94
2022-12-15T03:42:50.009Z,100094.94
2022-12-15T03:45:18.092Z,100097.19
2022-12-15T03:47:45.054Z,100099.50
2022-12-15T03:50:12.264Z,100109.69
2022-12-15T03:52:38.584Z,100108.72
2022-12-15T03:55:05.304Z,100107.81
2022-12-15T03:57:31.620Z,100100.19
2022-12-15T03:59:57.861Z,100113.06
2022-12-15T04:02:24.301Z,100113.97
2022-12-15T04:04:50.827Z,100123.44
2022-12-15T04:07:17.078Z,100114.56
2022-12-15T04:09:43.333Z,100121.28
2022-12-15T04:12:12.637Z,100134.97
2022-12-15T04:14:42.450Z,100122.09
2022-12-15T04:17:11.268Z,100129.72
2022-12-15T04:19:56.183Z,100123.34
2022-12-15T04:22:22.592Z,100118.66
2022-12-15T04:25:07.676Z,100122.03
2022-12-15T04:27:55.845Z,100120.97
2022-12-15T04:30:43.430Z,100123.88
2022-12-15T04:33:30.915Z,100130.88
2022-12-15T04:36:16.163Z,100136.91
2022-12-15T04:39:00.905Z,100139.56
2022-12-15T04:41:45.717Z,100141.34
2022-12-15T04:44:30.498Z,100138.84
2022-12-15T04:47:15.277Z,100137.09
2022-12-15T04:50:00.046Z,100136.19
2022-12-15T04:52:46.398Z,100139.56
2022-12-15T04:55:31.417Z,100130.06
2022-12-15T04:58:16.067Z,100134.34
2022-12-15T05:01:00.948Z,100137.00
2022-12-15T05:03:45.681Z,100127.59
2022-12-15T05:06:30.545Z,100128.41
2022-12-15T05:09:15.357Z,100137.78
2022-12-15T05:12:00.183Z,100128.31
2022-12-15T05:14:44.930Z,100129.09
2022-12-15T05:17:36.984Z,100134.97
2022-12-15T05:20:26.349Z,100144.53
2022-12-15T05:23:12.203Z,100143.38
2022-12-15T05:25:57.492Z,100149.13
2022-12-15T05:28:42.388Z,100151.81
2022-12-15T05:31:27.879Z,100157.81
2022-12-15T05:33:58.307Z,100164.78
2022-12-15T05:36:29.049Z,100156.94
2022-12-15T05:38:55.368Z,100161.38
2022-12-15T05:41:22.045Z,100167.28
2022-12-15T05:43:48.303Z,100169.78
2022-12-15T05:46:14.850Z,100174.81
2022-12-15T05:48:41.221Z,100174.63
2022-12-15T05:51:08.867Z,100175.69
2022-12-15T05:53:36.190Z,100184.09
2022-12-15T05:56:03.108Z,100181.38
2022-12-15T05:58:29.382Z,100186.44
2022-12-15T06:01:02.100Z,100200.94
2022-12-15T06:03:28.562Z,100201.47
2022-12-15T06:05:56.785Z,100203.94
2022-12-15T06:08:23.932Z,100201.25
2022-12-15T06:10:54.468Z,100207.91
2022-12-15T06:13:21.361Z,100210.38
2022-12-15T06:16:07.976Z,100217.31
2022-12-15T06:18:35.778Z,100219.94
2022-12-15T06:21:06.604Z,100220.75
2022-12-15T06:23:33.695Z,100219.69
2022-12-15T06:26:07.530Z,100233.25
2022-12-15T06:28:33.780Z,100233.03
2022-12-15T06:31:01.670Z,100227.72
2022-12-15T06:33:29.170Z,100232.59
2022-12-15T06:35:55.910Z,100232.28
2022-12-15T06:38:22.370Z,100239.63
2022-12-15T06:40:55.224Z,100240.03
2022-12-15T06:43:21.467Z,100242.50
2022-12-15T06:45:48.322Z,100244.97
2022-12-15T06:48:16.279Z,100249.81
2022-12-15T06:50:42.544Z,100254.75
2022-12-15T06:53:08.875Z,100257.84
2022-12-15T06:55:35.159Z,100263.75
2022-12-15T06:58:01.429Z,100267.19
2022-12-15T07:00:27.959Z,100266.31
2022-12-15T07:02:54.321Z,100273.22
2022-12-15T07:05:21.573Z,100278.16
2022-12-15T07:07:48.088Z,100274.72
2022-12-15T07:10:14.420Z,100278.75
2022-12-15T07:12:40.707Z,100275.97
2022-12-15T07:15:08.050Z,100282.72
2022-12-15T07:17:35.560Z,100283.78
2022-12-15T07:20:01.908Z,100290.00
2022-12-15T07:22:28.752Z,100290.38
2022-12-15T07:24:55.066Z,100299.06
2022-12-15T07:27:21.305Z,100288.56
2022-12-15T07:29:47.565Z,100301.81
2022-12-15T07:32:13.854Z,100307.81
2022-12-15T07:34:40.157Z,100310.94
2022-12-15T07:37:06.485Z,100313.16
2022-12-15T07:39:32.746Z,100322.22
2022-12-15T07:41:59.074Z,100324.38
2022-12-15T07:44:25.329Z,100327.69
2022-12-15T07:46:52.338Z,100329.84
2022-12-15T07:49:18.693Z,100334.19
2022-12-15T07:51:44.994Z,100338.63
2022-12-15T07:54:11.422Z,100334.53
2022-12-15T07:56:39.422Z,100338.31
2022-12-15T07:59:06.511Z,100334.22
2022-12-15T08:01:33.407Z,100343.97
2022-12-15T08:03:59.853Z,100350.56
2022-12-15T08:06:26.515Z,100347.44
2022-12-15T08:08:52.969Z,100353.84
2022-12-15T08:11:20.795Z,100362.22
2022-12-15T08:14:04.434Z,100368.66
2022-12-15T08:16:32.059Z,100363.06
2022-12-15T08:18:58.381Z,100367.78
2022-12-15T08:21:24.680Z,100357.22
2022-12-15T08:23:51.025Z,100363.69
2022-12-15T08:26:18.221Z,100359.72
2022-12-15T08:28:44.897Z,100363.34
2022-12-15T08:31:16.610Z,100373.97
2022-12-15T08:33:42.990Z,100381.41
2022-12-15T08:36:10.436Z,100385.38
2022-12-15T08:38:38.575Z,100381.59
2022-12-15T08:41:08.352Z,100387.50
2022-12-15T08:43:34.836Z,100394.16
2022-12-15T08:46:01.282Z,100385.22
2022-12-15T08:48:27.603Z,100388.22
2022-12-15T08:50:55.366Z,100393.94
2022-12-15T08:53:31.140Z,100399.44
2022-12-15T08:56:05.970Z,100398.72
2022-12-15T08:58:32.354Z,100402.69
2022-12-15T09:01:02.204Z,100402.34
2022-12-15T09:03:28.840Z,100408.16
2022-12-15T09:05:57.431Z,100411.19
2022-12-15T09:08:24.283Z,100407.00
2022-12-15T09:10:52.594Z,100407.00
2022-12-15T09:13:19.156Z,100408.88
2022-12-15T09:16:08.967Z,100411.66
2022-12-15T09:18:32.187Z,100411.25
2022-12-15T09:21:06.083Z,100418.56
2022-12-15T09:23:32.786Z,100417.78
2022-12-15T09:26:02.841Z,100423.16
2022-12-15T09:28:29.473Z,100415.66
2022-12-15T09:31:06.017Z,100420.91
2022-12-15T09:33:33.892Z,100420.81
2022-12-15T09:36:00.455Z,100423.16
2022-12-15T09:38:26.782Z,100423.81
2022-12-15T09:40:53.164Z,100422.69
2022-12-15T09:43:34.508Z,100424.97
2022-12-15T09:46:06.507Z,100416.47
2022-12-15T09:48:41.671Z,100419.94
2022-12-15T09:51:10.558Z,100417.66
2022-12-15T09:56:32.510Z,100415.47
2022-12-15T09:59:05.488Z,100427.06
2022-12-15T10:01:38.631Z,100424.41
2022-12-15T10:04:05.049Z,100422.91
2022-12-15T10:06:41.124Z,100420.50
2022-12-15T10:09:18.236Z,100405.97
2022-12-15T10:11:55.211Z,100414.00
2022-12-15T10:14:30.724Z,100419.50
2022-12-15T10:17:17.396Z,100411.94
2022-12-15T10:19:55.319Z,100426.13
2022-12-15T10:22:26.908Z,100421.97
2022-12-15T10:25:11.129Z,100422.38
2022-12-15T10:27:56.686Z,100439.88
2022-12-15T10:30:23.221Z,100440.06
2022-12-15T10:32:50.942Z,100437.50
2022-12-15T10:35:30.458Z,100434.47
2022-12-15T10:38:07.009Z,100440.72
2022-12-15T10:40:42.513Z,100427.13
2022-12-15T10:43:13.386Z,100436.50
2022-12-15T10:45:39.997Z,100428.16
2022-12-15T10:48:06.905Z,100425.03
2022-12-15T10:50:34.362Z,100420.09
2022-12-15T10:53:06.414Z,100423.91
2022-12-15T10:55:37.185Z,100421.81
2022-12-15T10:58:04.970Z,100424.41
2022-12-15T11:00:32.502Z,100424.66
2022-12-15T11:02:59.378Z,100428.75
2022-12-15T11:05:26.472Z,100429.66
2022-12-15T11:07:54.261Z,100432.78
2022-12-15T11:10:23.305Z,100436.53
2022-12-15T11:13:08.627Z,100437.28
2022-12-15T11:15:38.266Z,100443.31
2022-12-15T11:18:15.680Z,100442.78
2022-12-15T11:20:44.661Z,100439.06
2022-12-15T11:23:23.839Z,100442.66
2022-12-15T11:26:20.224Z,100438.41
2022-12-15T11:28:50.938Z,100449.59
2022-12-15T11:31:34.344Z,100450.63
2022-12-15T11:34:00.765Z,100448.84
2022-12-15T11:36:27.016Z,100454.59
2022-12-15T11:38:58.896Z,100460.09
2022-12-15T11:42:03.460Z,100459.19
2022-12-15T11:44:52.754Z,100469.84
2022-12-15T11:47:44.829Z,100465.06
2022-12-15T11:50:16.872Z,100466.09
2022-12-15T11:53:02.060Z,100468.66
2022-12-15T11:55:41.047Z,100465.91
2022-12-15T11:58:13.693Z,100461.41
2022-12-15T12:00:43.295Z,100467.19
2022-12-15T12:03:20.010Z,100465.88
2022-12-15T12:06:15.595Z,100461.66
2022-12-15T12:08:41.866Z,100469.75
2022-12-15T12:11:40.776Z,100472.69
2022-12-15T12:14:20.709Z,100470.88
2022-12-15T12:16:46.930Z,100476.50
2022-12-15T12:19:21.340Z,100473.75
2022-12-15T12:21:53.850Z,100476.41
2022-12-15T12:24:21.242Z,100479.09
2022-12-15T12:26:50.697Z,100474.81
2022-12-15T12:29:21.031Z,100477.59
2022-12-15T12:31:51.562Z,100479.47
2022-12-15T12:34:38.088Z,100470.72
2022-12-15T12:37:13.777Z,100478.72
2022-12-15T12:39:40.360Z,100475.38
2022-12-15T12:42:12.682Z,100481.28
2022-12-15T12:44:39.061Z,100476.91
2022-12-15T12:47:11.694Z,100481.06
2022-12-15T12:49:41.568Z,100480.94
2022-12-15T12:52:16.859Z,100483.41
2022-12-15T12:54:48.902Z,100480.88
2022-12-15T12:57:31.654Z,100483.53
2022-12-15T13:00:02.417Z,100491.38
2022-12-15T13:02:29.402Z,100487.22
2022-12-15T13:04:59.939Z,100495.94
2022-12-15T13:07:37.648Z,100496.91
2022-12-15T13:10:03.886Z,100496.84
2022-12-15T13:15:28.796Z,100488.16
2022-12-15T13:17:59.314Z,100486.56
2022-12-15T13:20:30.811Z,100488.38
2022-12-15T13:23:18.795Z,100487.47
2022-12-15T13:25:53.716Z,100492.59
2022-12-15T13:28:40.049Z,100497.78
2022-12-15T13:31:19.113Z,100497.91
2022-12-15T13:33:52.194Z,100506.69
2022-12-15T13:36:36.845Z,100491.22
2022-12-15T13:39:03.092Z,100503.50
2022-12-15T13:41:29.371Z,100484.59
2022-12-15T13:43:57.673Z,100484.69
2022-12-15T13:46:28.286Z,100493.34
2022-12-15T13:49:14.842Z,100495.19
2022-12-15T13:51:45.781Z,100495.31
2022-12-15T13:54:23.209Z,100495.94
2022-12-15T13:56:52.674Z,100494.97
2022-12-15T13:59:40.383Z,100505.25
2022-12-15T14:02:26.389Z,100499.06
2022-12-15T14:05:11.555Z,100506.84
2022-12-15T14:07:39.070Z,100502.34
2022-12-15T14:10:07.538Z,100511.00
2022-12-15T14:12:33.895Z,100516.13
2022-12-15T14:15:00.364Z,100513.59
2022-12-15T14:17:28.169Z,100523.06
2022-12-15T14:19:54.419Z,100519.47
2022-12-15T14:22:28.147Z,100529.75
2022-12-15T14:24:59.860Z,100531.38
2022-12-15T14:27:27.854Z,100538.28
2022-12-15T14:30:13.673Z,100535.63
2022-12-15T14:32:41.001Z,100540.78
2022-12-15T14:35:13.176Z,100536.38
2022-12-15T14:37:39.652Z,100538.06
2022-12-15T14:40:06.558Z,100533.63
2022-12-15T14:42:33.000Z,100546.50
2022-12-15T14:44:59.330Z,100543.78
2022-12-15T14:47:28.666Z,100544.53
2022-12-15T14:49:56.898Z,100548.91
2022-12-15T14:52:32.717Z,100552.44
2022-12-15T14:55:03.155Z,100551.50
2022-12-15T14:57:49.690Z,100554.09
2022-12-15T15:00:23.059Z,100553.19
2022-12-15T15:02:49.522Z,100557.53
2022-12-15T15:05:27.654Z,100563.63
2022-12-15T15:07:55.894Z,100552.44
2022-12-15T15:10:24.303Z,100553.34
2022-12-15T15:12:52.595Z,100561.97
2022-12-15T15:15:20.615Z,100562.88
2022-12-15T15:17:49.864Z,100557.63
2022-12-15T15:20:16.165Z,100564.56
2022-12-15T15:22:43.525Z,100565.47
2022-12-15T15:25:25.382Z,100565.47
2022-12-15T15:27:51.715Z,100559.44
2022-12-15T15:30:22.031Z,100573.31
2022-12-15T15:32:56.227Z,100572.56
2022-12-15T15:35:24.211Z,100568.19
2022-12-15T15:37:51.534Z,100572.56
2022-12-15T15:40:18.215Z,100562.25
2022-12-15T15:42:45.390Z,100560.63
2022-12-15T15:45:13.661Z,100565.88
2022-12-15T15:47:41.139Z,100568.47
2022-12-15T15:50:11.558Z,100573.72
2022-12-15T15:52:37.818Z,100563.34
2022-12-15T15:55:04.336Z,100574.63
2022-12-15T15:57:30.583Z,100566.84
2022-12-15T15:59:57.050Z,100578.16
2022-12-15T16:02:23.527Z,100585.09
2022-12-15T16:04:50.633Z,100581.63
2022-12-15T16:07:22.602Z,100579.03
2022-12-15T16:09:49.044Z,100579.91
2022-12-15T16:12:42.388Z,100579.13
2022-12-15T16:15:19.912Z,100585.09
2022-12-15T16:17:46.963Z,100576.56
2022-12-15T16:20:14.153Z,100562.81
2022-12-15T16:22:41.909Z,100571.69
2022-12-15T16:25:42.533Z,100577.72
2022-12-15T16:28:17.650Z,100575.13
2022-12-15T16:30:44.382Z,100575.97
2022-12-15T16:33:12.225Z,100581.06
2022-12-15T16:35:39.820Z,100579.44
2022-12-15T16:38:06.480Z,100585.47
2022-12-15T16:40:36.853Z,100594.91
2022-12-15T16:43:04.141Z,100592.41
2022-12-15T16:45:31.168Z,100594.16
2022-12-15T16:47:58.149Z,100596.84
2022-12-15T16:50:30.529Z,100597.66
2022-12-15T16:52:57.037Z,100598.53
2022-12-15T16:55:27.547Z,100594.38
2022-12-15T16:58:03.797Z,100602.97
2022-12-15T17:00:32.319Z,100610.81
2022-12-15T17:02:58.851Z,100612.44
2022-12-15T17:05:26.548Z,100615.03
2022-12-15T17:07:55.147Z,100612.44
2022-12-15T17:10:23.003Z,100617.72
2022-12-15T17:12:49.563Z,100615.03
2022-12-15T17:15:26.338Z,100620.16
2022-12-15T17:17:53.441Z,100621.91
2022-12-15T17:20:30.979Z,100622.81
2022-12-15T17:23:02.391Z,100623.69
2022-12-15T17:26:19.586Z,100630.66
2022-12-15T17:28:28.792Z,100635.84
2022-12-15T17:30:55.072Z,100634.94
2022-12-15T17:33:25.568Z,100643.69
2022-12-15T17:35:53.325Z,100647.97
2022-12-15T17:38:20.470Z,100645.38
2022-12-15T17:40:47.760Z,100657.50
2022-12-15T17:43:15.531Z,100652.34
2022-12-15T17:45:42.072Z,100648.91
2022-12-15T17:48:08.387Z,100655.81
2022-12-15T17:50:35.216Z,100650.63
2022-12-15T17:53:02.823Z,100661.94
2022-12-15T17:55:34.874Z,100661.88
2022-12-15T17:58:02.630Z,100673.97
2022-12-15T18:00:30.214Z,100663.53
2022-12-15T18:02:57.797Z,100675.66
2022-12-15T18:05:28.082Z,100677.41
2022-12-15T18:08:02.213Z,100685.16
2022-12-15T18:10:33.239Z,100683.34
2022-12-15T18:12:59.943Z,100679.88
2022-12-15T18:15:28.699Z,100677.16
2022-12-15T18:17:55.049Z,100676.06
2022-12-15T18:20:21.427Z,100682.06
2022-12-15T18:22:48.664Z,100689.69
2022-12-15T18:25:35.180Z,100694.94
2022-12-15T18:28:01.456Z,100696.72
2022-12-15T18:30:27.754Z,100691.44
2022-12-15T18:32:56.213Z,100690.50
2022-12-15T18:35:36.600Z,100697.44
2022-12-15T18:38:11.660Z,100693.13
2022-12-15T18:40:37.926Z,100701.81
2022-12-15T18:43:05.526Z,100703.56
2022-12-15T18:45:31.789Z,100704.47
2022-12-15T18:47:58.035Z,100712.25
2022-12-15T18:50:25.226Z,100712.25
2022-12-15T18:53:01.072Z,100719.00
2022-12-15T18:55:29.730Z,100720.69
2022-12-15T18:57:56.200Z,100724.19
2022-12-15T19:00:27.614Z,100725.03
2022-12-15T19:02:55.279Z,100730.31
2022-12-15T19:05:28.650Z,100727.78
2022-12-15T19:08:00.231Z,100733.16
2022-12-15T19:10:30.967Z,100727.94
2022-12-15T19:12:58.837Z,100734.75
2022-12-15T19:15:25.663Z,100739.06
2022-12-15T19:18:10.714Z,100740.75
2022-12-15T19:20:55.576Z,100748.59
2022-12-15T19:23:22.089Z,100740.00
2022-12-15T19:25:49.119Z,100744.34
2022-12-15T19:28:16.858Z,100750.44
2022-12-15T19:30:43.574Z,100756.50
2022-12-15T19:33:13.379Z,100768.66
2022-12-15T19:35:41.056Z,100762.56
2022-12-15T19:38:07.744Z,100775.53
2022-12-15T19:40:35.076Z,100772.78
2022-12-15T19:43:02.127Z,100773.59
2022-12-15T19:45:29.751Z,100775.38
2022-12-15T19:47:56.080Z,100775.44
2022-12-15T19:50:29.793Z,100780.56
2022-12-15T19:53:00.736Z,100781.44
2022-12-15T19:55:29.459Z,100784.03
2022-12-15T19:57:55.743Z,100781.53
2022-12-15T20:00:22.256Z,100784.19
2022-12-15T20:02:49.251Z,100783.31
2022-12-15T20:05:15.599Z,100782.41
2022-12-15T20:07:42.281Z,100788.41
2022-12-15T20:10:24.421Z,100795.44
2022-12-15T20:12:53.003Z,100806.69
2022-12-15T20:15:21.504Z,100803.34
2022-12-15T20:17:48.454Z,100807.88
2022-12-15T20:20:15.984Z,100805.38
2022-12-15T20:22:43.484Z,100800.25
2022-12-15T20:25:15.249Z,100802.84
2022-12-15T20:27:41.492Z,100797.66
2022-12-15T20:30:14.115Z,100801.94
2022-12-15T20:32:40.361Z,100798.50
2022-12-15T20:35:06.656Z,100807.13
2022-12-15T20:37:32.897Z,100808.78
2022-12-15T20:39:59.139Z,100814.84
2022-12-15T20:42:25.442Z,100822.59
2022-12-15T20:44:51.691Z,100813.06
2022-12-15T20:47:22.453Z,100817.34
2022-12-15T20:49:50.044Z,100820.84
2022-12-15T20:52:20.728Z,100823.44
2022-12-15T20:54:46.983Z,100827.72
2022-12-15T20:57:13.241Z,100822.53
2022-12-15T20:59:39.515Z,100819.94
2022-12-15T21:02:25.481Z,100820.75
2022-12-15T21:04:52.223Z,100818.91
2022-12-15T21:07:18.773Z,100822.31
2022-12-15T21:09:45.159Z,100818.75
2022-12-15T21:12:31.698Z,100821.25
2022-12-15T21:14:58.323Z,100824.75
2022-12-15T21:17:28.164Z,100831.69
2022-12-15T21:19:54.834Z,100824.84
2022-12-15T21:22:24.536Z,100830.84
2022-12-15T21:24:52.845Z,100836.09
2022-12-15T21:27:19.818Z,100837.78
2022-12-15T21:29:52.281Z,100842.97
2022-12-15T21:32:19.221Z,100844.72
2022-12-15T21:34:45.476Z,100852.66
2022-12-15T21:37:26.728Z,100846.66
2022-12-15T21:39:53.188Z,100857.03
2022-12-15T21:42:21.220Z,100859.69
2022-12-15T21:44:48.022Z,100863.13
2022-12-15T21:47:14.679Z,100859.63
2022-12-15T21:49:40.966Z,100865.78
2022-12-15T21:52:08.835Z,100866.66
2022-12-15T21:54:36.270Z,100865.88
2022-12-15T21:57:02.824Z,100860.72
2022-12-15T21:59:30.586Z,100865.88
2022-12-15T22:01:57.127Z,100871.09
2022-12-15T22:04:29.154Z,100866.81
2022-12-15T22:06:55.713Z,100866.00
2022-12-15T22:09:21.964Z,100870.22
2022-12-15T22:11:49.810Z,100880.66
2022-12-15T22:14:23.783Z,100877.19
2022-12-15T22:16:50.019Z,100874.59
2022-12-15T22:19:16.284Z,100875.50
2022-12-15T22:21:42.624Z,100885.03
2022-12-15T22:24:09.615Z,100881.63
2022-12-15T22:26:36.804Z,100894.66
2022-12-15T22:29:09.371Z,100879.19
2022-12-15T22:31:35.678Z,100879.09
2022-12-15T22:34:02.440Z,100885.03
2022-12-15T22:36:28.668Z,100886.81
2022-12-15T22:38:54.931Z,100875.63
2022-12-15T22:41:22.140Z,100873.03
2022-12-15T22:43:50.306Z,100879.09
2022-12-15T22:46:16.748Z,100881.69
2022-12-15T22:48:44.699Z,100881.69
2022-12-15T22:51:12.478Z,100886.06
2022-12-15T22:53:38.873Z,100880.00
2022-12-15T22:56:10.164Z,100877.34
2022-12-15T22:58:42.634Z,100872.97
2022-12-15T23:01:09.937Z,100873.84
2022-12-15T23:03:36.438Z,100870.31
2022-12-15T23:06:03.120Z,100866.81
2022-12-15T23:08:29.994Z,100878.94
2022-12-15T23:11:15.045Z,100876.50
2022-12-15T23:13:41.289Z,100885.19
2022-12-15T23:16:20.374Z,100892.16
2022-12-15T23:18:53.799Z,100882.66
2022-12-15T23:21:21.510Z,100887.84
2022-12-15T23:23:48.204Z,100887.84
2022-12-15T23:26:15.740Z,100891.16
2022-12-15T23:28:43.273Z,100889.31
2022-12-15T23:31:09.833Z,100888.38
2022-12-15T23:33:36.509Z,100897.00
2022-12-15T23:36:02.808Z,100896.97
2022-12-15T23:38:29.341Z,100901.41
2022-12-15T23:40:56.253Z,100912.81
2022-12-15T23:43:23.561Z,100910.28
2022-12-15T23:46:00.300Z,100914.66
2022-12-15T23:48:30.743Z,100912.13
2022-12-15T23:51:02.216Z,100922.59
2022-12-15T23:53:28.664Z,100910.50
2022-12-15T23:55:55.143Z,100909.72
2022-12-15T23:58:21.997Z,100916.59
